createdAt,value
2023-02-21T00:00:11.452Z,366.27
2023-02-21T00:01:11.781Z,368.31
2023-02-21T00:02:11.619Z,367.90
2023-02-21T00:03:11.688Z,367.49
2023-02-21T00:04:11.775Z,367.90
2023-02-21T00:05:11.925Z,368.72
2023-02-21T00:06:11.991Z,369.13
2023-02-21T00:07:12.046Z,368.31
2023-02-21T00:08:18.097Z,369.13
2023-02-21T00:09:12.262Z,367.49
2023-02-21T00:10:12.312Z,369.13
2023-02-21T00:11:12.767Z,367.90
2023-02-21T00:12:12.460Z,369.13
2023-02-21T00:13:12.552Z,369.13
2023-02-21T00:14:12.619Z,368.31
2023-02-21T00:15:12.672Z,367.49
2023-02-21T00:16:12.796Z,370.79
2023-02-21T00:17:12.839Z,367.49
2023-02-21T00:18:12.899Z,368.72
2023-02-21T00:19:13.007Z,370.37
2023-02-21T00:20:13.105Z,369.54
2023-02-21T00:21:13.486Z,368.72
2023-02-21T00:22:13.294Z,370.37
2023-02-21T00:23:13.321Z,367.90
2023-02-21T00:24:13.408Z,368.31
2023-02-21T00:25:13.491Z,368.31
2023-02-21T00:26:13.585Z,371.20
2023-02-21T00:27:13.672Z,368.72
2023-02-21T00:28:13.705Z,369.95
2023-02-21T00:29:13.787Z,369.54
2023-02-21T00:30:13.889Z,367.90
2023-02-21T00:31:14.270Z,369.13
2023-02-21T00:32:14.092Z,369.54
2023-02-21T00:33:14.205Z,367.49
2023-02-21T00:34:14.236Z,368.72
2023-02-21T00:35:14.280Z,370.79
2023-02-21T00:36:14.336Z,368.31
2023-02-21T00:37:14.399Z,369.95
2023-02-21T00:38:14.518Z,369.95
2023-02-21T00:39:20.561Z,369.95
2023-02-21T00:40:14.707Z,368.72
2023-02-21T00:41:15.098Z,369.13
2023-02-21T00:42:14.870Z,371.20
2023-02-21T00:43:14.984Z,370.37
2023-02-21T00:44:15.039Z,369.13
2023-02-21T00:45:15.134Z,369.95
2023-02-21T00:46:15.256Z,370.79
2023-02-21T00:47:15.286Z,369.95
2023-02-21T00:48:15.345Z,369.54
2023-02-21T00:49:15.439Z,371.20
2023-02-21T00:50:15.534Z,371.20
2023-02-21T00:51:15.894Z,370.37
2023-02-21T00:52:15.712Z,372.88
2023-02-21T00:53:15.766Z,369.13
2023-02-21T00:54:15.866Z,370.79
2023-02-21T00:55:15.965Z,369.54
2023-02-21T00:56:16.113Z,370.37
2023-02-21T00:57:16.138Z,370.37
2023-02-21T00:58:16.237Z,368.31
2023-02-21T00:59:16.366Z,370.79
2023-02-21T01:00:16.407Z,370.79
2023-02-21T01:01:16.934Z,371.62
2023-02-21T01:02:16.566Z,370.37
2023-02-21T01:03:16.648Z,370.79
2023-02-21T01:04:16.777Z,369.54
2023-02-21T01:05:16.811Z,371.62
2023-02-21T01:06:16.865Z,371.62
2023-02-21T01:07:16.982Z,371.62
2023-02-21T01:08:17.049Z,369.54
2023-02-21T01:09:17.127Z,370.79
2023-02-21T01:10:23.187Z,370.37
2023-02-21T01:11:17.281Z,369.95
2023-02-21T01:12:17.380Z,370.79
2023-02-21T01:13:17.466Z,371.62
2023-02-21T01:14:17.551Z,370.79
2023-02-21T01:15:17.626Z,369.95
2023-02-21T01:16:17.721Z,372.88
2023-02-21T01:17:17.805Z,370.79
2023-02-21T01:18:17.900Z,370.79
2023-02-21T01:19:18.403Z,371.62
2023-02-21T01:20:18.083Z,371.62
2023-02-21T01:21:18.167Z,371.20
2023-02-21T01:22:18.224Z,372.04
2023-02-21T01:23:18.318Z,369.95
2023-02-21T01:24:18.384Z,370.37
2023-02-21T01:25:18.477Z,373.72
2023-02-21T01:26:18.531Z,373.72
2023-02-21T01:27:18.614Z,371.62
2023-02-21T01:28:18.708Z,370.37
2023-02-21T01:29:18.766Z,370.79
2023-02-21T01:30:18.910Z,369.13
2023-02-21T01:31:18.958Z,372.88
2023-02-21T01:32:19.047Z,371.20
2023-02-21T01:33:19.093Z,370.79
2023-02-21T01:34:19.172Z,370.37
2023-02-21T01:35:19.256Z,372.46
2023-02-21T01:36:19.322Z,372.46
2023-02-21T01:37:19.421Z,371.62
2023-02-21T01:38:19.495Z,369.54
2023-02-21T01:39:19.572Z,372.88
2023-02-21T01:40:19.632Z,372.88
2023-02-21T01:41:25.718Z,371.20
2023-02-21T01:42:19.840Z,370.37
2023-02-21T01:43:19.923Z,373.30
2023-02-21T01:44:20.011Z,370.79
2023-02-21T01:45:20.096Z,373.30
2023-02-21T01:46:20.236Z,370.37
2023-02-21T01:47:20.255Z,371.20
2023-02-21T01:48:20.384Z,369.95
2023-02-21T01:49:20.447Z,372.46
2023-02-21T01:50:20.553Z,373.72
2023-02-21T01:51:20.642Z,373.72
2023-02-21T01:52:20.712Z,372.88
2023-02-21T01:53:20.839Z,373.72
2023-02-21T01:54:20.900Z,372.88
2023-02-21T01:55:20.996Z,373.72
2023-02-21T01:56:21.910Z,372.88
2023-02-21T01:57:21.181Z,373.72
2023-02-21T01:58:21.251Z,372.88
2023-02-21T01:59:21.354Z,371.20
2023-02-21T02:00:21.410Z,374.57
2023-02-21T02:01:21.496Z,373.72
2023-02-21T02:02:21.565Z,374.57
2023-02-21T02:03:21.666Z,373.72
2023-02-21T02:04:21.795Z,374.14
2023-02-21T02:05:21.823Z,372.88
2023-02-21T02:06:21.901Z,373.30
2023-02-21T02:07:22.008Z,371.20
2023-02-21T02:08:22.098Z,372.88
2023-02-21T02:09:22.177Z,374.57
2023-02-21T02:10:22.273Z,374.14
2023-02-21T02:11:22.336Z,375.42
2023-02-21T02:12:28.387Z,373.72
2023-02-21T02:13:22.517Z,374.14
2023-02-21T02:14:22.612Z,373.72
2023-02-21T02:15:22.706Z,373.72
2023-02-21T02:16:22.796Z,375.84
2023-02-21T02:17:22.870Z,375.42
2023-02-21T02:18:22.961Z,373.72
2023-02-21T02:19:23.070Z,374.99
2023-02-21T02:20:23.134Z,374.57
2023-02-21T02:21:23.235Z,373.72
2023-02-21T02:22:23.293Z,375.42
2023-02-21T02:23:23.380Z,374.14
2023-02-21T02:24:23.462Z,374.14
2023-02-21T02:25:23.558Z,373.30
2023-02-21T02:26:23.663Z,373.30
2023-02-21T02:27:23.722Z,372.04
2023-02-21T02:28:23.824Z,373.30
2023-02-21T02:29:23.882Z,374.14
2023-02-21T02:30:24.032Z,375.42
2023-02-21T02:31:24.115Z,374.99
2023-02-21T02:32:24.160Z,372.46
2023-02-21T02:33:24.196Z,373.30
2023-02-21T02:34:24.313Z,379.14
2023-02-21T02:35:24.356Z,374.57
2023-02-21T02:36:24.456Z,374.99
2023-02-21T02:37:24.581Z,375.84
2023-02-21T02:38:24.643Z,375.42
2023-02-21T02:39:24.742Z,374.57
2023-02-21T02:40:24.825Z,375.42
2023-02-21T02:41:25.433Z,374.14
2023-02-21T02:42:25.000Z,376.27
2023-02-21T02:43:31.481Z,376.70
2023-02-21T02:44:25.174Z,374.99
2023-02-21T02:45:25.256Z,374.57
2023-02-21T02:46:25.385Z,374.99
2023-02-21T02:47:25.420Z,374.57
2023-02-21T02:48:25.509Z,375.42
2023-02-21T02:49:25.603Z,373.30
2023-02-21T02:50:25.704Z,375.42
2023-02-21T02:51:25.750Z,373.30
2023-02-21T02:52:25.850Z,374.57
2023-02-21T02:53:25.931Z,379.35
2023-02-21T02:54:26.013Z,374.14
2023-02-21T02:55:26.113Z,376.27
2023-02-21T02:56:26.153Z,376.70
2023-02-21T02:57:26.228Z,374.57
2023-02-21T02:58:26.304Z,373.72
2023-02-21T02:59:26.409Z,379.35
2023-02-21T03:00:26.504Z,374.99
2023-02-21T03:01:26.597Z,379.78
2023-02-21T03:02:26.664Z,374.57
2023-02-21T03:03:26.765Z,375.42
2023-02-21T03:04:26.832Z,375.84
2023-02-21T03:05:26.913Z,375.84
2023-02-21T03:06:27.013Z,374.57
2023-02-21T03:07:27.086Z,375.84
2023-02-21T03:08:27.160Z,374.14
2023-02-21T03:09:27.241Z,376.70
2023-02-21T03:10:27.315Z,374.57
2023-02-21T03:11:27.414Z,376.70
2023-02-21T03:12:27.526Z,375.84
2023-02-21T03:13:27.588Z,374.57
2023-02-21T03:14:33.657Z,379.78
2023-02-21T03:15:27.764Z,373.72
2023-02-21T03:16:27.849Z,378.92
2023-02-21T03:17:27.902Z,381.07
2023-02-21T03:18:28.003Z,374.99
2023-02-21T03:19:28.068Z,379.78
2023-02-21T03:20:28.165Z,373.72
2023-02-21T03:21:28.243Z,375.84
2023-02-21T03:22:28.337Z,380.21
2023-02-21T03:23:28.421Z,375.42
2023-02-21T03:24:28.504Z,379.78
2023-02-21T03:25:28.578Z,376.70
2023-02-21T03:26:28.660Z,375.42
2023-02-21T03:27:28.758Z,376.27
2023-02-21T03:28:28.842Z,375.42
2023-02-21T03:29:28.930Z,380.21
2023-02-21T03:30:29.078Z,374.99
2023-02-21T03:31:29.198Z,379.35
2023-02-21T03:32:29.171Z,375.42
2023-02-21T03:33:29.268Z,380.42
2023-02-21T03:34:29.365Z,376.70
2023-02-21T03:35:29.488Z,375.84
2023-02-21T03:36:29.539Z,376.70
2023-02-21T03:37:29.610Z,376.27
2023-02-21T03:38:29.707Z,376.27
2023-02-21T03:39:29.780Z,375.84
2023-02-21T03:40:29.865Z,375.42
2023-02-21T03:41:29.957Z,381.07
2023-02-21T03:42:29.995Z,379.35
2023-02-21T03:43:30.073Z,381.29
2023-02-21T03:44:30.149Z,376.27
2023-02-21T03:45:36.229Z,381.07
2023-02-21T03:46:30.386Z,379.99
2023-02-21T03:47:30.419Z,376.27
2023-02-21T03:48:32.706Z,376.27
2023-02-21T03:49:30.559Z,375.42
2023-02-21T03:50:30.634Z,376.70
2023-02-21T03:51:30.714Z,379.78
2023-02-21T03:52:30.815Z,379.78
2023-02-21T03:53:30.853Z,378.71
2023-02-21T03:54:30.934Z,376.70
2023-02-21T03:55:31.014Z,381.72
2023-02-21T03:56:41.563Z,376.70
2023-02-21T03:57:32.002Z,381.72
2023-02-21T03:58:31.269Z,375.84
2023-02-21T03:59:31.378Z,382.59
2023-02-21T04:00:31.409Z,378.71
2023-02-21T04:01:31.504Z,379.99
2023-02-21T04:02:31.582Z,378.71
2023-02-21T04:03:31.671Z,379.56
2023-02-21T04:04:31.753Z,381.50
2023-02-21T04:05:31.859Z,380.21
2023-02-21T04:06:31.927Z,375.42
2023-02-21T04:07:32.005Z,376.70
2023-02-21T04:08:32.110Z,375.84
2023-02-21T04:09:32.223Z,378.92
2023-02-21T04:10:35.718Z,376.27
2023-02-21T04:11:32.364Z,382.59
2023-02-21T04:12:32.437Z,379.99
2023-02-21T04:13:32.522Z,376.70
2023-02-21T04:14:32.624Z,382.15
2023-02-21T04:15:32.660Z,382.59
2023-02-21T04:16:38.718Z,382.59
2023-02-21T04:17:32.802Z,376.70
2023-02-21T04:18:32.898Z,381.07
2023-02-21T04:19:33.003Z,381.50
2023-02-21T04:20:33.110Z,380.64
2023-02-21T04:21:33.186Z,379.14
2023-02-21T04:22:33.251Z,381.29
2023-02-21T04:23:33.347Z,378.92
2023-02-21T04:24:33.424Z,379.35
2023-02-21T04:25:33.543Z,380.42
2023-02-21T04:26:33.617Z,381.94
2023-02-21T04:27:33.712Z,379.14
2023-02-21T04:28:33.815Z,382.15
2023-02-21T04:29:33.894Z,383.90
2023-02-21T04:30:34.013Z,382.37
2023-02-21T04:31:34.095Z,379.99
2023-02-21T04:32:34.181Z,376.70
2023-02-21T04:33:34.213Z,381.72
2023-02-21T04:34:34.314Z,382.37
2023-02-21T04:35:34.409Z,380.85
2023-02-21T04:36:34.508Z,383.24
2023-02-21T04:37:34.564Z,383.90
2023-02-21T04:38:34.666Z,383.24
2023-02-21T04:39:34.758Z,383.68
2023-02-21T04:40:34.854Z,381.72
2023-02-21T04:41:34.965Z,379.99
2023-02-21T04:42:35.903Z,382.81
2023-02-21T04:43:35.137Z,383.24
2023-02-21T04:44:35.230Z,382.15
2023-02-21T04:45:35.335Z,379.56
2023-02-21T04:46:35.398Z,379.14
2023-02-21T04:47:41.531Z,380.42
2023-02-21T04:48:35.572Z,379.99
2023-02-21T04:49:35.659Z,381.94
2023-02-21T04:50:35.742Z,381.50
2023-02-21T04:51:35.819Z,379.78
2023-02-21T04:52:35.926Z,382.15
2023-02-21T04:53:36.009Z,382.15
2023-02-21T04:54:36.057Z,382.81
2023-02-21T04:55:36.154Z,383.03
2023-02-21T04:56:36.295Z,379.99
2023-02-21T04:57:36.310Z,380.64
2023-02-21T04:58:44.944Z,381.29
2023-02-21T04:59:36.514Z,383.24
2023-02-21T05:00:36.591Z,380.85
2023-02-21T05:01:36.663Z,383.24
2023-02-21T05:02:36.753Z,383.24
2023-02-21T05:03:36.823Z,381.29
2023-02-21T05:04:36.945Z,383.46
2023-02-21T05:05:37.007Z,382.81
2023-02-21T05:06:37.055Z,381.94
2023-02-21T05:07:37.123Z,380.21
2023-02-21T05:08:37.206Z,382.81
2023-02-21T05:09:37.280Z,383.68
2023-02-21T05:10:45.535Z,384.12
2023-02-21T05:11:37.466Z,381.72
2023-02-21T05:12:37.526Z,383.68
2023-02-21T05:13:37.644Z,382.37
2023-02-21T05:14:37.685Z,383.24
2023-02-21T05:15:37.751Z,381.72
2023-02-21T05:16:37.848Z,383.03
2023-02-21T05:17:37.949Z,376.70
2023-02-21T05:18:43.984Z,381.72
2023-02-21T05:19:38.104Z,381.72
2023-02-21T05:20:38.185Z,382.37
2023-02-21T05:21:38.258Z,381.72
2023-02-21T05:22:38.359Z,380.64
2023-02-21T05:23:38.467Z,382.15
2023-02-21T05:24:38.502Z,379.56
2023-02-21T05:25:38.583Z,381.29
2023-02-21T05:26:38.679Z,381.29
2023-02-21T05:27:38.772Z,376.27
2023-02-21T05:28:38.868Z,376.27
2023-02-21T05:29:38.954Z,375.84
2023-02-21T05:30:39.198Z,376.70
2023-02-21T05:31:39.187Z,375.42
2023-02-21T05:32:39.218Z,379.99
2023-02-21T05:33:39.309Z,375.84
2023-02-21T05:34:39.413Z,374.57
2023-02-21T05:35:39.476Z,379.56
2023-02-21T05:36:40.984Z,376.27
2023-02-21T05:37:39.635Z,374.14
2023-02-21T05:38:39.688Z,375.42
2023-02-21T05:39:39.793Z,374.57
2023-02-21T05:40:39.881Z,374.57
2023-02-21T05:41:39.982Z,374.14
2023-02-21T05:42:40.046Z,374.57
2023-02-21T05:43:40.153Z,374.57
2023-02-21T05:44:40.237Z,374.14
2023-02-21T05:45:40.385Z,374.14
2023-02-21T05:46:40.430Z,374.14
2023-02-21T05:47:40.546Z,373.30
2023-02-21T05:48:40.607Z,373.30
2023-02-21T05:49:46.697Z,374.14
2023-02-21T05:50:40.778Z,372.46
2023-02-21T05:51:40.864Z,371.20
2023-02-21T05:52:40.962Z,372.46
2023-02-21T05:53:41.022Z,372.04
2023-02-21T05:54:41.094Z,372.04
2023-02-21T05:55:41.178Z,373.30
2023-02-21T05:56:41.261Z,373.30
2023-02-21T05:57:41.336Z,371.20
2023-02-21T05:58:41.558Z,370.37
2023-02-21T05:59:41.522Z,371.62
2023-02-21T06:00:41.596Z,372.04
2023-02-21T06:01:41.682Z,370.79
2023-02-21T06:02:41.782Z,369.95
2023-02-21T06:03:41.961Z,368.72
2023-02-21T06:04:41.990Z,372.04
2023-02-21T06:05:42.081Z,369.95
2023-02-21T06:06:42.158Z,369.54
2023-02-21T06:07:42.255Z,368.72
2023-02-21T06:08:42.333Z,368.31
2023-02-21T06:09:42.415Z,368.31
2023-02-21T06:10:42.490Z,367.90
2023-02-21T06:11:42.569Z,366.27
2023-02-21T06:12:42.667Z,368.31
2023-02-21T06:13:42.761Z,367.49
2023-02-21T06:14:42.842Z,367.90
2023-02-21T06:15:42.962Z,367.90
2023-02-21T06:16:43.076Z,367.90
2023-02-21T06:17:43.169Z,365.46
2023-02-21T06:18:43.202Z,367.08
2023-02-21T06:19:43.333Z,366.67
2023-02-21T06:20:49.334Z,367.08
2023-02-21T06:21:43.442Z,367.08
2023-02-21T06:22:43.540Z,366.27
2023-02-21T06:23:43.597Z,365.05
2023-02-21T06:24:43.670Z,364.25
2023-02-21T06:25:43.776Z,364.25
2023-02-21T06:26:43.866Z,364.25
2023-02-21T06:27:43.976Z,365.46
2023-02-21T06:28:44.053Z,365.05
2023-02-21T06:29:44.131Z,363.85
2023-02-21T06:30:44.355Z,363.85
2023-02-21T06:31:44.346Z,364.65
2023-02-21T06:32:44.405Z,365.05
2023-02-21T06:33:44.514Z,365.46
2023-02-21T06:34:44.594Z,362.65
2023-02-21T06:35:44.690Z,363.05
2023-02-21T06:36:44.769Z,362.65
2023-02-21T06:37:44.877Z,362.65
2023-02-21T06:38:44.944Z,362.65
2023-02-21T06:39:45.047Z,360.67
2023-02-21T06:40:45.110Z,363.05
2023-02-21T06:41:45.189Z,363.05
2023-02-21T06:42:45.264Z,362.65
2023-02-21T06:43:45.406Z,362.25
2023-02-21T06:44:45.426Z,362.65
2023-02-21T06:45:45.536Z,363.85
2023-02-21T06:46:45.585Z,361.86
2023-02-21T06:47:45.682Z,362.65
2023-02-21T06:48:45.785Z,363.05
2023-02-21T06:49:45.874Z,361.86
2023-02-21T06:50:45.986Z,362.25
2023-02-21T06:51:52.094Z,361.07
2023-02-21T06:52:46.130Z,361.07
2023-02-21T06:53:46.196Z,361.46
2023-02-21T06:54:46.270Z,360.67
2023-02-21T06:55:46.317Z,361.46
2023-02-21T06:56:46.421Z,359.10
2023-02-21T06:57:46.504Z,360.28
2023-02-21T06:58:46.564Z,359.10
2023-02-21T06:59:46.669Z,360.28
2023-02-21T07:00:46.750Z,359.10
2023-02-21T07:01:46.956Z,360.67
2023-02-21T07:02:46.894Z,359.89
2023-02-21T07:03:47.010Z,361.46
2023-02-21T07:04:47.197Z,363.45
2023-02-21T07:05:47.185Z,367.08
2023-02-21T07:06:47.283Z,366.67
2023-02-21T07:07:47.400Z,367.90
2023-02-21T07:08:47.452Z,370.79
2023-02-21T07:09:47.565Z,367.90
2023-02-21T07:10:47.638Z,368.72
2023-02-21T07:11:47.705Z,371.62
2023-02-21T07:12:47.819Z,369.54
2023-02-21T07:13:47.870Z,370.79
2023-02-21T07:14:47.956Z,370.79
2023-02-21T07:15:48.093Z,368.72
2023-02-21T07:16:48.150Z,370.37
2023-02-21T07:17:48.220Z,370.37
2023-02-21T07:18:48.308Z,369.95
2023-02-21T07:19:48.384Z,370.37
2023-02-21T07:20:48.488Z,369.95
2023-02-21T07:21:48.520Z,369.95
2023-02-21T07:22:54.594Z,369.54
2023-02-21T07:23:48.670Z,368.72
2023-02-21T07:24:48.738Z,370.37
2023-02-21T07:25:48.829Z,369.54
2023-02-21T07:26:48.936Z,367.90
2023-02-21T07:27:48.974Z,371.20
2023-02-21T07:28:49.155Z,369.13
2023-02-21T07:29:49.174Z,367.08
2023-02-21T07:30:49.557Z,368.72
2023-02-21T07:31:49.546Z,368.31
2023-02-21T07:32:49.490Z,367.49
2023-02-21T07:33:49.578Z,367.90
2023-02-21T07:34:49.602Z,368.31
2023-02-21T07:35:49.698Z,368.72
2023-02-21T07:36:49.788Z,366.67
2023-02-21T07:37:49.870Z,368.72
2023-02-21T07:38:49.982Z,368.72
2023-02-21T07:39:50.050Z,365.46
2023-02-21T07:40:50.106Z,367.49
2023-02-21T07:41:50.200Z,365.46
2023-02-21T07:42:50.291Z,365.05
2023-02-21T07:43:50.367Z,365.05
2023-02-21T07:44:50.495Z,365.05
2023-02-21T07:45:50.531Z,365.86
2023-02-21T07:46:50.602Z,366.27
2023-02-21T07:47:50.682Z,365.46
2023-02-21T07:48:50.746Z,363.85
2023-02-21T07:49:50.831Z,364.65
2023-02-21T07:50:50.932Z,363.05
2023-02-21T07:51:51.008Z,364.25
2023-02-21T07:52:51.068Z,364.65
2023-02-21T07:53:57.150Z,363.05
2023-02-21T07:54:51.258Z,362.25
2023-02-21T07:55:51.381Z,364.65
2023-02-21T07:56:51.470Z,362.25
2023-02-21T07:57:51.532Z,362.65
2023-02-21T07:58:51.636Z,362.25
2023-02-21T07:59:51.741Z,361.86
2023-02-21T08:00:51.823Z,361.07
2023-02-21T08:01:51.940Z,360.67
2023-02-21T08:02:52.044Z,359.89
2023-02-21T08:03:52.119Z,359.49
2023-02-21T08:04:52.306Z,359.10
2023-02-21T08:05:52.308Z,359.89
2023-02-21T08:06:52.389Z,359.89
2023-02-21T08:07:52.483Z,357.94
2023-02-21T08:08:52.529Z,357.55
2023-02-21T08:09:52.618Z,357.94
2023-02-21T08:10:52.715Z,356.39
2023-02-21T08:11:52.792Z,358.33
2023-02-21T08:12:52.880Z,356.39
2023-02-21T08:13:52.974Z,356.39
2023-02-21T08:14:53.035Z,358.33
2023-02-21T08:15:53.171Z,357.16
2023-02-21T08:16:53.210Z,357.16
2023-02-21T08:17:53.308Z,356.78
2023-02-21T08:18:53.407Z,355.24
2023-02-21T08:19:53.521Z,356.39
2023-02-21T08:20:53.589Z,355.24
2023-02-21T08:21:53.677Z,356.39
2023-02-21T08:22:53.757Z,354.10
2023-02-21T08:23:53.954Z,354.86
2023-02-21T08:25:00.145Z,353.35
2023-02-21T08:25:54.009Z,352.97
2023-02-21T08:26:54.097Z,353.35
2023-02-21T08:27:54.220Z,352.59
2023-02-21T08:28:54.237Z,354.86
2023-02-21T08:29:54.319Z,356.01
2023-02-21T08:30:54.412Z,354.86
2023-02-21T08:31:54.505Z,352.97
2023-02-21T08:32:54.535Z,354.48
2023-02-21T08:33:54.613Z,354.48
2023-02-21T08:34:54.681Z,354.86
2023-02-21T08:35:54.775Z,353.35
2023-02-21T08:36:54.835Z,353.35
2023-02-21T08:37:54.937Z,350.35
2023-02-21T08:38:55.014Z,353.35
2023-02-21T08:39:55.092Z,352.59
2023-02-21T08:40:57.463Z,352.59
2023-02-21T08:41:55.309Z,351.47
2023-02-21T08:42:55.374Z,350.72
2023-02-21T08:43:55.466Z,349.98
2023-02-21T08:44:55.556Z,352.22
2023-02-21T08:45:55.633Z,351.84
2023-02-21T08:46:55.781Z,350.35
2023-02-21T08:47:55.797Z,349.61
2023-02-21T08:48:55.904Z,351.47
2023-02-21T08:49:55.981Z,349.98
2023-02-21T08:50:56.071Z,349.24
2023-02-21T08:51:56.175Z,349.98
2023-02-21T08:52:56.405Z,351.10
2023-02-21T08:53:56.339Z,347.04
2023-02-21T08:54:56.414Z,349.61
2023-02-21T08:56:02.493Z,348.50
2023-02-21T08:56:56.594Z,349.98
2023-02-21T08:57:56.713Z,348.14
2023-02-21T08:58:56.782Z,347.40
2023-02-21T08:59:56.859Z,348.50
2023-02-21T09:00:56.977Z,348.50
2023-02-21T09:01:57.235Z,347.77
2023-02-21T09:02:57.124Z,345.59
2023-02-21T09:03:57.287Z,348.50
2023-02-21T09:04:57.280Z,347.77
2023-02-21T09:05:57.446Z,345.59
2023-02-21T09:06:57.457Z,347.04
2023-02-21T09:07:57.562Z,346.68
2023-02-21T09:08:57.668Z,345.95
2023-02-21T09:09:59.560Z,347.40
2023-02-21T09:10:57.814Z,347.04
2023-02-21T09:11:57.901Z,347.40
2023-02-21T09:12:57.980Z,346.31
2023-02-21T09:13:58.137Z,344.15
2023-02-21T09:14:58.195Z,344.51
2023-02-21T09:15:58.274Z,346.31
2023-02-21T09:16:58.333Z,345.95
2023-02-21T09:17:58.432Z,346.31
2023-02-21T09:18:58.524Z,344.87
2023-02-21T09:19:58.623Z,344.87
2023-02-21T09:20:58.673Z,345.23
2023-02-21T09:22:00.811Z,343.43
2023-02-21T09:22:58.997Z,343.43
2023-02-21T09:23:58.946Z,344.15
2023-02-21T09:24:59.073Z,343.43
2023-02-21T09:25:59.149Z,344.87
2023-02-21T09:27:05.296Z,343.79
2023-02-21T09:27:59.286Z,342.72
2023-02-21T09:28:59.365Z,343.43
2023-02-21T09:29:59.464Z,343.08
2023-02-21T09:30:59.582Z,340.25
2023-02-21T09:31:59.682Z,342.37
2023-02-21T09:32:59.759Z,343.08
2023-02-21T09:33:59.856Z,344.51
2023-02-21T09:34:59.934Z,343.79
2023-02-21T09:36:00.014Z,342.01
2023-02-21T09:37:00.130Z,341.31
2023-02-21T09:38:00.193Z,340.95
2023-02-21T09:39:00.284Z,340.25
2023-02-21T09:40:00.393Z,342.01
2023-02-21T09:41:00.479Z,342.72
2023-02-21T09:42:00.598Z,341.66
2023-02-21T09:43:00.645Z,340.95
2023-02-21T09:44:00.734Z,341.66
2023-02-21T09:45:02.548Z,342.37
2023-02-21T09:46:00.989Z,339.90
2023-02-21T09:47:01.000Z,340.60
2023-02-21T09:48:01.115Z,341.66
2023-02-21T09:49:01.221Z,340.95
2023-02-21T09:50:01.262Z,341.66
2023-02-21T09:51:01.358Z,340.95
2023-02-21T09:52:01.462Z,340.25
2023-02-21T09:53:01.534Z,340.95
2023-02-21T09:54:01.591Z,340.60
2023-02-21T09:55:01.676Z,340.60
2023-02-21T09:56:01.771Z,339.55
2023-02-21T09:57:01.858Z,339.90
2023-02-21T09:58:08.204Z,339.21
2023-02-21T09:59:02.029Z,339.21
2023-02-21T10:00:02.065Z,341.66
2023-02-21T10:01:02.164Z,339.90
2023-02-21T10:02:02.209Z,343.08
2023-02-21T10:03:02.308Z,340.95
2023-02-21T10:04:02.407Z,339.90
2023-02-21T10:05:02.506Z,340.25
2023-02-21T10:06:04.399Z,338.51
2023-02-21T10:07:02.637Z,341.31
2023-02-21T10:08:02.710Z,337.82
2023-02-21T10:09:02.806Z,338.51
2023-02-21T10:10:02.872Z,338.17
2023-02-21T10:11:02.954Z,338.51
2023-02-21T10:12:03.054Z,337.13
2023-02-21T10:13:03.159Z,337.47
2023-02-21T10:14:03.222Z,338.17
2023-02-21T10:15:03.332Z,338.17
2023-02-21T10:16:03.392Z,337.13
2023-02-21T10:17:03.480Z,341.66
2023-02-21T10:18:03.552Z,337.13
2023-02-21T10:19:03.647Z,341.31
2023-02-21T10:20:03.763Z,338.51
2023-02-21T10:21:03.775Z,338.17
2023-02-21T10:22:03.871Z,339.21
2023-02-21T10:23:03.970Z,337.47
2023-02-21T10:24:04.062Z,338.51
2023-02-21T10:25:04.146Z,338.17
2023-02-21T10:26:04.266Z,337.47
2023-02-21T10:27:04.344Z,339.21
2023-02-21T10:28:04.421Z,342.72
2023-02-21T10:29:10.487Z,338.51
2023-02-21T10:30:04.747Z,338.17
2023-02-21T10:31:04.830Z,337.13
2023-02-21T10:32:04.847Z,338.17
2023-02-21T10:33:04.873Z,338.17
2023-02-21T10:34:04.949Z,339.21
2023-02-21T10:35:05.034Z,338.51
2023-02-21T10:36:05.132Z,339.21
2023-02-21T10:37:05.333Z,337.82
2023-02-21T10:38:05.318Z,343.79
2023-02-21T10:39:05.398Z,336.44
2023-02-21T10:40:07.548Z,337.47
2023-02-21T10:41:05.573Z,337.47
2023-02-21T10:42:05.708Z,337.47
2023-02-21T10:43:05.757Z,338.17
2023-02-21T10:44:05.888Z,338.17
2023-02-21T10:45:05.933Z,338.17
2023-02-21T10:46:06.059Z,336.44
2023-02-21T10:47:06.113Z,343.79
2023-02-21T10:48:06.186Z,338.17
2023-02-21T10:49:06.269Z,336.44
2023-02-21T10:50:06.361Z,337.47
2023-02-21T10:51:06.458Z,337.47
2023-02-21T10:52:06.545Z,337.47
2023-02-21T10:53:06.664Z,335.76
2023-02-21T10:54:06.730Z,336.79
2023-02-21T10:55:06.807Z,336.44
2023-02-21T10:56:07.035Z,336.44
2023-02-21T10:57:06.982Z,337.13
2023-02-21T10:58:07.114Z,340.25
2023-02-21T10:59:07.175Z,338.17
2023-02-21T11:01:27.996Z,394.27
2023-02-21T11:02:29.071Z,385.00
2023-02-21T11:03:29.124Z,378.49
2023-02-21T11:04:29.245Z,370.37
2023-02-21T11:05:29.331Z,367.90
2023-02-21T11:06:29.385Z,365.46
2023-02-21T11:07:29.461Z,361.46
2023-02-21T11:08:29.542Z,363.85
2023-02-21T11:09:29.714Z,359.10
2023-02-21T11:10:29.741Z,356.01
2023-02-21T11:11:29.828Z,355.63
2023-02-21T11:12:29.910Z,354.86
2023-02-21T11:13:29.986Z,352.59
2023-02-21T11:14:30.092Z,352.59
2023-02-21T11:15:30.257Z,350.35
2023-02-21T11:16:30.283Z,349.98
2023-02-21T11:17:30.362Z,347.04
2023-02-21T11:18:30.436Z,348.50
2023-02-21T11:19:30.531Z,349.24
2023-02-21T11:20:30.630Z,347.77
2023-02-21T11:21:30.712Z,348.14
2023-02-21T11:22:31.180Z,348.14
2023-02-21T11:23:30.891Z,346.68
2023-02-21T11:24:30.965Z,346.31
2023-02-21T11:25:31.069Z,345.23
2023-02-21T11:26:31.184Z,344.51
2023-02-21T11:27:31.266Z,345.23
2023-02-21T11:28:31.350Z,344.87
2023-02-21T11:29:31.441Z,343.79
2023-02-21T11:30:31.585Z,344.51
2023-02-21T11:31:38.171Z,343.08
2023-02-21T11:32:31.715Z,342.01
2023-02-21T11:33:31.806Z,343.79
2023-02-21T11:34:31.885Z,344.15
2023-02-21T11:35:31.973Z,341.31
2023-02-21T11:36:32.054Z,341.66
2023-02-21T11:37:32.160Z,340.25
2023-02-21T11:38:32.242Z,342.72
2023-02-21T11:39:32.311Z,342.01
2023-02-21T11:40:32.413Z,341.31
2023-02-21T11:41:32.489Z,341.31
2023-02-21T11:42:32.592Z,343.08
2023-02-21T11:43:32.670Z,340.25
2023-02-21T11:44:32.749Z,342.01
2023-02-21T11:45:32.843Z,340.25
2023-02-21T11:46:32.949Z,340.25
2023-02-21T11:47:33.045Z,340.95
2023-02-21T11:48:33.142Z,344.15
2023-02-21T11:49:33.271Z,340.60
2023-02-21T11:50:33.345Z,343.79
2023-02-21T11:51:33.395Z,340.60
2023-02-21T11:52:33.469Z,339.21
2023-02-21T11:53:33.593Z,340.60
2023-02-21T11:54:33.679Z,339.55
2023-02-21T11:55:33.758Z,337.82
2023-02-21T11:56:33.853Z,339.55
2023-02-21T11:57:33.958Z,338.17
2023-02-21T11:58:34.041Z,337.82
2023-02-21T11:59:34.141Z,337.82
2023-02-21T12:00:34.206Z,340.25
2023-02-21T12:01:34.298Z,337.13
2023-02-21T12:02:40.404Z,337.82
2023-02-21T12:03:34.476Z,337.82
2023-02-21T12:04:34.561Z,338.86
2023-02-21T12:05:34.674Z,336.44
2023-02-21T12:06:34.717Z,337.47
2023-02-21T12:07:34.818Z,335.42
2023-02-21T12:08:34.871Z,337.82
2023-02-21T12:09:34.933Z,336.10
2023-02-21T12:10:35.029Z,335.76
2023-02-21T12:11:35.067Z,336.79
2023-02-21T12:12:35.173Z,336.44
2023-02-21T12:13:35.264Z,340.25
2023-02-21T12:14:35.351Z,335.08
2023-02-21T12:15:35.472Z,337.82
2023-02-21T12:16:35.604Z,335.42
2023-02-21T12:17:35.605Z,334.40
2023-02-21T12:18:35.714Z,334.74
2023-02-21T12:19:35.803Z,336.10
2023-02-21T12:20:35.892Z,335.42
2023-02-21T12:21:36.062Z,334.40
2023-02-21T12:22:36.091Z,334.40
2023-02-21T12:23:36.288Z,334.06
2023-02-21T12:24:36.271Z,337.47
2023-02-21T12:25:36.355Z,335.08
2023-02-21T12:26:36.403Z,333.39
2023-02-21T12:27:36.516Z,334.06
2023-02-21T12:28:36.597Z,335.08
2023-02-21T12:29:36.702Z,335.42
2023-02-21T12:30:37.016Z,337.13